Latest Coastal Weather Observations for McCluer Island

IDD60701

Issued at 1:41 am CST Monday 5 December 2016 (issued every 10 minutes, with the page automatically refreshed every 10 minutes)

About coastal observations | Map of coastal stations | Coastal observations for NT | Marine services | Other Formats
Station Details ID: 014274 Name: MCCLUER ISLAND Lat: -11.05 Lon: 132.98 Height: 1.4 m
Data from the previous 72 hours. | See also: Recent months at McCluer Island
Date/Time
CST
Temp
°C
Wind Pressure Rain since
9am
mm
Weather Cloud Vis
km
Sea
Height
m
Swell
Dir  Spd
kts
Gust
kts
hPa Trend Height
m
Period
s
Dir
05/01:30am 29.8 ENE 11 13 1008.0 - 0.0 - - - - - - -
05/01:00am 30.0 ENE 11 13 1008.3 - 0.0 - - - - - - -
05/12:30am 30.0 ENE 12 15 1008.4 - 0.0 - - - - - - -
05/12:00am 30.1 ENE 14 16 1008.5 - 0.0 - - - - - - -
 
Date/Time
CST
Temp
°C
Wind Pressure Rain since
9am
mm
Weather Cloud Vis
km
Sea
Height
m
Swell
Dir  Spd
kts
Gust
kts
hPa Trend Height
m
Period
s
Dir
04/11:30pm 30.2 NE 15 17 1008.7 - 0.0 - - - - - - -
04/11:00pm 30.1 ENE 14 17 1008.8 - 0.0 - - - - - - -
04/10:30pm 30.0 NE 14 16 1008.9 - 0.0 - - - - - - -
04/10:00pm 30.0 ENE 13 15 1008.8 - 0.0 - - - - - - -
04/09:30pm 30.0 ENE 13 15 1008.6 - 0.0 - - - - - - -
04/09:00pm 30.1 ENE 13 15 1008.5 - 0.0 - - - - - - -
04/08:30pm 30.1 NE 12 15 1008.5 - 0.0 - - - - - - -
04/08:00pm 30.0 ENE 12 15 1008.2 - 0.0 - - - - - - -
04/07:30pm 30.2 ENE 14 16 1008.0 - 0.0 - - - - - - -
04/07:00pm 30.2 ENE 15 17 1007.7 - 0.0 - - - - - - -
04/06:30pm 30.6 ENE 15 18 1007.6 - 0.0 - - - - - - -
04/06:00pm 30.7 E 16 18 1007.5 - 0.0 - - - - - - -
04/05:30pm 30.8 E 16 18 1007.3 - 0.0 - - - - - - -
04/05:00pm 31.0 E 15 18 1007.4 - 0.0 - - - - - - -
04/04:30pm 31.4 E 13 16 1007.5 - 0.0 - - - - - - -
04/04:00pm 31.6 E 13 15 1007.7 - 0.0 - - - - - - -
04/03:30pm 31.5 E 14 17 1007.6 - 0.0 - - - - - - -
04/03:00pm 31.5 E 15 17 1007.7 - 0.0 - - - - - - -
04/02:30pm 31.4 E 15 17 1008.0 - 0.0 - - - - - - -
04/02:00pm 31.6 E 15 17 1008.1 - 0.0 - - - - - - -
04/01:30pm 31.5 E 14 17 1008.6 - 0.0 - - - - - - -
04/01:00pm 31.1 E 14 17 1008.8 - 0.0 - - - - - - -
04/12:30pm 31.4 E 14 17 1009.1 - 0.0 - - - - - - -
04/12:00pm 31.3 E 13 15 1009.5 - 0.0 - - - - - - -
04/11:30am 31.8 E 14 16 1009.6 - 0.0 - - - - - - -
04/11:00am 31.6 E 12 14 1009.9 - 0.0 - - - - - - -
04/10:30am 31.6 E 12 14 1010.0 - 0.0 - - - - - - -
04/10:00am 31.1 E 12 14 1010.1 - 0.0 - - - - - - -
04/09:30am 31.5 E 11 13 1010.2 - 0.0 - - - - - - -
04/09:00am 31.1 E 11 14 1010.3 - 0.0 - - - - - - -
04/08:30am 30.8 E 12 15 1010.1 - 0.0 - - - - - - -
04/08:00am 30.4 E 11 14 1010.2 - 0.0 - - - - - - -
04/07:30am 30.4 E 11 14 1010.0 - 0.0 - - - - - - -
04/07:00am 30.0 E 12 15 1009.9 - 0.0 - - - - - - -
04/06:30am 29.7 ENE 12 14 1009.4 - 0.0 - - - - - - -
04/06:00am 29.6 E 13 15 1009.0 - 0.0 - - - - - - -
04/05:30am 29.6 E 14 16 1008.8 - 0.0 - - - - - - -
04/04:30am 29.3 E 12 15 1008.1 - 0.0 - - - - - - -
04/04:00am 29.6 ENE 11 13 1007.9 - 0.0 - - - - - - -
04/03:30am 29.5 ENE 11 13 1007.8 - 0.0 - - - - - - -
04/03:00am 29.6 ENE 11 14 1007.7 - 0.0 - - - - - - -
04/02:30am 29.6 ENE 10 13 1008.0 - 0.0 - - - - - - -
04/02:00am 29.5 ENE 11 13 1008.1 - 0.0 - - - - - - -
04/01:30am 29.8 ENE 10 11 1008.6 - 0.0 - - - - - - -
04/01:00am 29.6 ENE 11 13 1008.8 - 0.0 - - - - - - -
04/12:30am 29.8 NE 12 14 1009.2 - 0.0 - - - - - - -
04/12:00am 29.9 ENE 11 14 1009.6 - 0.0 - - - - - - -
 
Date/Time
CST
Temp
°C
Wind Pressure Rain since
9am
mm
Weather Cloud Vis
km
Sea
Height
m
Swell
Dir  Spd
kts
Gust
kts
hPa Trend Height
m
Period
s
Dir
03/11:30pm 30.0 ENE 12 14 1010.2 - 0.0 - - - - - - -
03/11:00pm 29.9 ENE 11 13 1010.6 - 0.0 - - - - - - -
03/10:30pm 30.0 ENE 12 14 1010.7 - 0.0 - - - - - - -
03/10:00pm 30.1 ENE 12 15 1010.4 - 0.0 - - - - - - -
03/09:30pm 30.0 ENE 12 15 1010.2 - 0.0 - - - - - - -
03/09:00pm 30.1 E 13 16 1010.1 - 0.0 - - - - - - -
03/08:30pm 30.0 E 13 15 1009.7 - 0.0 - - - - - - -
03/08:00pm 30.1 E 13 16 1009.5 - 0.0 - - - - - - -
03/07:30pm 30.3 E 14 16 1009.0 - 0.0 - - - - - - -
03/07:00pm 30.3 E 14 16 1008.9 - 0.0 - - - - - - -
03/06:30pm 30.4 E 13 16 1008.7 - 0.0 - - - - - - -
03/06:00pm 30.9 E 14 16 1008.7 - 0.0 - - - - - - -
03/05:30pm 31.2 E 14 16 1008.4 - 0.0 - - - - - - -
03/05:00pm 31.1 E 14 17 1007.9 - 0.0 - - - - - - -
03/04:30pm 31.5 E 13 16 1007.7 - 0.0 - - - - - - -
03/04:00pm 31.4 E 15 18 1007.5 - 0.0 - - - - - - -
03/03:30pm 32.1 E 12 14 1007.8 - 0.0 - - - - - - -
03/03:00pm 31.3 E 13 14 1007.9 - 0.0 - - - - - - -
03/02:30pm 31.6 ENE 12 15 1008.0 - 0.0 - - - - - - -
03/02:00pm 31.4 ENE 12 15 1008.4 - 0.0 - - - - - - -
03/01:30pm 31.5 ENE 12 14 1008.6 - 0.0 - - - - - - -
03/01:00pm 31.6 ENE 10 13 1009.1 - 0.0 - - - - - - -
03/12:30pm 32.0 E 9 11 1009.4 - 0.0 - - - - - - -
03/12:00pm 31.4 ENE 8 10 1009.7 - 0.0 - - - - - - -
03/11:30am 31.5 E 9 10 1010.1 - 0.0 - - - - - - -
03/11:00am 31.1 ENE 9 10 1010.4 - 0.0 - - - - - - -
03/10:30am 31.4 E 10 11 1010.7 - 0.0 - - - - - - -
03/10:00am 31.2 E 9 11 1010.8 - 0.0 - - - - - - -
03/09:30am 30.5 ENE 10 12 1010.6 - 0.0 - - - - - - -
03/09:00am 30.2 ENE 12 14 1010.6 - 0.0 - - - - - - -
03/08:30am 30.1 ENE 11 15 1010.3 - 0.0 - - - - - - -
03/08:00am 30.2 ENE 11 14 1010.1 - 0.0 - - - - - - -
03/07:30am 30.1 E 10 12 1009.9 - 0.0 - - - - - - -
03/07:00am 29.6 E 8 9 1009.5 - 0.0 - - - - - - -
03/06:30am 29.5 ENE 7 9 1009.3 - 0.0 - - - - - - -
03/06:00am 29.5 ENE 7 9 1009.0 - 0.0 - - - - - - -
03/05:30am 29.4 ENE 5 6 1008.8 - 0.0 - - - - - - -
03/05:00am 29.0 NE 9 13 1008.4 - 0.0 - - - - - - -
03/04:30am 29.4 E 7 8 1008.1 - 0.0 - - - - - - -
03/04:00am 29.0 ENE 11 14 1008.2 - 0.0 - - - - - - -
03/03:30am 29.8 NE 8 10 1008.3 - 0.0 - - - - - - -
03/03:00am 30.0 NE 7 8 1008.2 - 0.0 - - - - - - -
03/02:30am 30.0 NE 7 8 1008.5 - 0.0 - - - - - - -
03/02:00am 30.0 NE 8 9 1008.5 - 0.0 - - - - - - -
03/01:30am 30.1 NE 9 11 1008.8 - 0.0 - - - - - - -
03/01:00am 29.9 NE 9 11 1009.0 - 0.0 - - - - - - -
03/12:30am 30.1 NE 9 11 1009.0 - 0.0 - - - - - - -
03/12:00am 30.0 ENE 7 9 1009.7 - 0.0 - - - - - - -
 
Date/Time
CST
Temp
°C
Wind Pressure Rain since
9am
mm
Weather Cloud Vis
km
Sea
Height
m
Swell
Dir  Spd
kts
Gust
kts
hPa Trend Height
m
Period
s
Dir
02/11:30pm 30.2 NE 9 11 1009.9 - 0.0 - - - - - - -
02/11:00pm 30.2 ENE 7 9 1010.0 - 0.0 - - - - - - -
02/10:30pm 30.0 ENE 7 9 1010.0 - 0.0 - - - - - - -
02/10:00pm 30.0 ENE 8 11 1009.7 - 0.0 - - - - - - -
02/09:30pm 30.3 ENE 9 10 1009.4 - 0.0 - - - - - - -
02/09:00pm 30.1 NE 10 11 1008.9 - 0.0 - - - - - - -
02/08:30pm 30.0 NE 8 10 1008.8 - 0.0 - - - - - - -
02/08:00pm 29.8 NE 9 11 1008.5 - 0.0 - - - - - - -
02/07:30pm 29.8 NE 9 11 1008.1 - 0.0 - - - - - - -
02/07:00pm 29.9 NE 9 10 1007.8 - 0.0 - - - - - - -
02/06:30pm 29.7 NE 9 10 1007.5 - 0.0 - - - - - - -
02/06:00pm 29.8 E 8 9 1007.2 - 0.0 - - - - - - -
02/05:30pm 30.0 ENE 7 9 1007.4 - 0.0 - - - - - - -
02/05:00pm 30.2 ENE 8 10 1007.3 - 0.0 - - - - - - -
02/04:30pm 30.6 ENE 8 10 1007.5 - 0.0 - - - - - - -
02/04:00pm 30.8 E 8 11 1007.6 - 0.0 - - - - - - -
02/03:30pm 30.9 E 8 10 1007.7 - 0.0 - - - - - - -
02/03:00pm 30.9 E 8 11 1007.9 - 0.0 - - - - - - -
02/02:30pm 30.7 E 9 11 1007.8 - 0.0 - - - - - - -
02/02:00pm 30.6 E 9 10 1007.9 - 0.0 - - - - - - -
02/01:30pm 29.9 ENE 7 9 1008.3 - 0.0 - - - - - - -
02/01:00pm 29.4 NE 10 12 1008.1 - 0.0 - - - - - - -
02/12:30pm 29.1 NNE 14 17 1008.3 - 0.0 - - - - - - -
02/12:00pm 28.8 ENE 12 14 1008.8 - 0.0 - - - - - - -
02/11:30am 28.7 ENE 11 13 1009.4 - 0.0 - - - - - - -
02/11:00am 28.8 ESE 12 15 1010.0 - 0.0 - - - - - - -
02/10:30am 29.2 SSE 8 11 1010.8 - 0.0 - - - - - - -
02/10:00am 27.5 S 10 12 1011.0 - 0.0 - - - - - - -
02/09:30am 26.5 S 12 16 1010.9 - 0.0 - - - - - - -
02/09:00am 27.1 SSE 12 16 1011.3 - 0.0 - - - - - - -
02/08:30am 28.0 S 10 15 1010.9 - 0.0 - - - - - - -
02/08:00am 28.7 SSE 9 13 1010.7 - 0.0 - - - - - - -
02/07:30am 30.4 ENE 2 5 1010.3 - 0.0 - - - - - - -
02/07:00am 30.0 NE 5 6 1009.2 - 0.0 - - - - - - -
02/06:30am 29.8 N 6 7 1009.1 - 0.0 - - - - - - -
02/06:00am 29.9 N 7 8 1008.4 - 0.0 - - - - - - -
02/05:30am 29.8 N 6 7 1008.0 - 0.0 - - - - - - -
02/05:00am 30.0 N 7 8 1007.7 - 0.0 - - - - - - -
02/04:30am 29.7 NNW 7 9 1007.5 - 0.0 - - - - - - -
02/04:00am 29.8 N 9 10 1007.3 - 0.0 - - - - - - -
02/03:30am 29.9 NNW 9 11 1007.7 - 0.0 - - - - - - -
02/03:00am 29.9 NNW 9 11 1007.4 - 0.0 - - - - - - -
02/02:30am 29.7 NNW 9 11 1007.5 - 0.0 - - - - - - -
02/02:00am 29.6 NNW 9 11 1007.6 - 0.0 - - - - - - -

Other Formats:

Comma delimited format used in spreadsheet applications
http://www.bom.gov.au/fwo/IDD60701/IDD60701.94135.axf

JavaScript Object Notation format (JSON) in row-major order
http://www.bom.gov.au/fwo/IDD60701/IDD60701.94135.json